Time;durP1;ratioP1;P1;durP2;ratioP2;P2;SDS_P1;SDS_P2;PMS_P1;PMS_P2;Temp;Humidity;BMP_temperature;BMP_pressure;BME280_temperature;BME280_humidity;BME280_pressure;Samples;Min_cycle;Max_cycle;Signal;HPM_P1;HPM_P2
2022/03/12 00:01:21;;;;;;;7.80;2.70;;;4.60;99.90;;;;;;5068040;28;20694;-71
2022/03/12 00:03:50;;;;;;;7.37;2.43;;;4.60;99.90;;;;;;5047214;28;20205;-71
2022/03/12 00:06:21;;;;;;;6.47;2.50;;;4.60;99.90;;;;;;5046249;28;20183;-71
2022/03/12 00:08:48;;;;;;;8.13;3.13;;;4.60;99.90;;;;;;5044875;28;20635;-71
2022/03/12 00:11:25;;;;;;;9.03;2.53;;;4.60;99.90;;;;;;5025148;28;20247;-71
2022/03/12 00:13:57;;;;;;;4.70;2.13;;;4.60;99.90;;;;;;5069012;28;20646;-71
2022/03/12 00:16:25;;;;;;;6.77;2.10;;;4.60;99.90;;;;;;5058584;28;20195;-72
2022/03/12 00:19:02;;;;;;;7.20;2.50;;;4.50;99.90;;;;;;5056426;28;20199;-72
2022/03/12 00:21:47;;;;;;;5.10;2.30;;;4.60;99.90;;;;;;5048857;28;20229;-72
2022/03/12 00:24:17;;;;;;;5.73;2.43;;;4.60;99.90;;;;;;5052392;28;20209;-72
2022/03/12 00:26:46;;;;;;;8.13;2.50;;;4.60;99.90;;;;;;5051487;28;20229;-72
2022/03/12 00:29:16;;;;;;;7.80;2.60;;;4.60;99.90;;;;;;5036933;28;20187;-72
2022/03/12 00:31:46;;;;;;;5.37;2.63;;;4.60;99.90;;;;;;5052006;28;20213;-71
2022/03/12 00:34:14;;;;;;;6.83;2.93;;;4.60;99.90;;;;;;5050110;28;20219;-71
2022/03/12 00:36:45;;;;;;;5.23;2.30;;;4.50;99.90;;;;;;5051908;28;20215;-71
2022/03/12 00:39:19;;;;;;;6.00;2.10;;;4.60;99.90;;;;;;5051101;28;20191;-71
2022/03/12 00:41:52;;;;;;;6.60;2.10;;;4.60;99.90;;;;;;5051494;28;20936;-71
2022/03/12 00:44:20;;;;;;;7.53;2.03;;;4.60;99.90;;;;;;5051700;28;20191;-71
2022/03/12 00:46:48;;;;;;;6.20;1.87;;;4.60;99.90;;;;;;5069457;28;20633;-71
2022/03/12 00:49:15;;;;;;;5.40;2.20;;;4.70;99.90;;;;;;5035997;28;20285;-71
2022/03/12 00:51:44;;;;;;;5.50;2.20;;;4.70;99.90;;;;;;5048241;28;20681;-71
2022/03/12 00:54:11;;;;;;;6.67;2.13;;;4.70;99.90;;;;;;5031434;28;20525;-71
2022/03/12 00:56:39;;;;;;;6.37;2.50;;;4.70;99.90;;;;;;5024819;28;20219;-71
2022/03/12 00:59:07;;;;;;;6.13;2.30;;;4.80;99.90;;;;;;5036217;28;20190;-71
2022/03/12 01:01:34;;;;;;;7.80;2.03;;;4.80;99.90;;;;;;5069266;28;20198;-71
2022/03/12 01:04:01;;;;;;;4.57;2.03;;;4.80;99.90;;;;;;5043055;28;20206;-71
2022/03/12 01:06:34;;;;;;;6.90;2.10;;;4.80;99.90;;;;;;5051633;28;20199;-72
2022/03/12 01:09:07;;;;;;;11.77;2.33;;;4.80;99.90;;;;;;5052710;28;20245;-72
2022/03/12 01:11:34;;;;;;;10.77;2.60;;;4.80;99.90;;;;;;5047240;28;20965;-71
2022/03/12 01:14:06;;;;;;;4.73;2.03;;;4.80;99.90;;;;;;5064516;28;20183;-71
2022/03/12 01:16:36;;;;;;;6.60;2.10;;;4.80;99.90;;;;;;5051524;28;20194;-72
2022/03/12 01:19:10;;;;;;;6.50;2.43;;;4.80;99.90;;;;;;5052022;28;20201;-71
2022/03/12 01:21:37;;;;;;;8.17;2.20;;;4.80;99.90;;;;;;5031185;28;20669;-69
2022/03/12 01:24:03;;;;;;;6.67;2.10;;;4.70;99.90;;;;;;5051079;28;20988;-68
2022/03/12 01:26:30;;;;;;;4.60;1.97;;;4.70;99.90;;;;;;5069697;28;20206;-69
2022/03/12 01:28:58;;;;;;;4.63;2.10;;;4.70;99.90;;;;;;5036114;28;20183;-69
2022/03/12 01:31:25;;;;;;;12.27;2.30;;;4.70;99.90;;;;;;5042693;28;20621;-69
2022/03/12 01:33:52;;;;;;;6.27;2.13;;;4.70;99.90;;;;;;5043422;28;20200;-68
2022/03/12 01:36:19;;;;;;;4.80;2.17;;;4.70;99.90;;;;;;5052382;28;20210;-69
2022/03/12 01:38:51;;;;;;;7.50;2.33;;;4.70;99.90;;;;;;5069509;28;20279;-69
2022/03/12 01:41:30;;;;;;;3.07;2.10;;;4.70;99.90;;;;;;5048029;28;20191;-71
2022/03/12 01:44:01;;;;;;;3.27;1.80;;;4.70;99.90;;;;;;5052121;28;20227;-71
2022/03/12 01:46:39;;;;;;;4.70;2.13;;;4.70;99.90;;;;;;5050975;28;20264;-72
2022/03/12 01:49:36;;;;;;;2.73;1.93;;;4.70;99.90;;;;;;5032465;28;20638;-71
2022/03/12 01:52:07;;;;;;;6.10;2.13;;;4.60;99.90;;;;;;5021373;28;20183;-71
2022/03/12 01:54:38;;;;;;;2.90;2.03;;;4.50;99.90;;;;;;5039068;28;20950;-71
2022/03/12 01:57:06;;;;;;;4.77;1.87;;;4.40;99.90;;;;;;5045152;28;20332;-71
2022/03/12 01:59:35;;;;;;;3.67;1.97;;;4.30;99.90;;;;;;5041921;28;20208;-71
2022/03/12 02:02:15;;;;;;;3.87;1.80;;;4.30;99.90;;;;;;5039437;28;20194;-71
2022/03/12 02:04:52;;;;;;;4.20;1.90;;;4.20;99.90;;;;;;5023895;28;20309;-71
2022/03/12 02:07:21;;;;;;;5.80;2.20;;;4.20;99.90;;;;;;5038274;28;20191;-71
2022/03/12 02:09:50;;;;;;;3.67;1.83;;;4.20;99.90;;;;;;5040223;28;20620;-69
2022/03/12 02:12:16;;;;;;;2.43;2.00;;;4.20;99.90;;;;;;5039155;28;20535;-71
2022/03/12 02:14:43;;;;;;;4.00;1.97;;;4.20;99.90;;;;;;5056001;28;20212;-72
2022/03/12 02:17:12;;;;;;;4.90;2.13;;;4.20;99.90;;;;;;5048788;28;20266;-71
2022/03/12 02:19:44;;;;;;;6.00;2.10;;;4.20;99.90;;;;;;5058183;28;20292;-72
2022/03/12 02:22:16;;;;;;;6.80;1.73;;;4.20;99.90;;;;;;5048953;28;20194;-72
2022/03/12 02:24:44;;;;;;;6.60;2.73;;;4.20;99.90;;;;;;5048604;28;20700;-71
2022/03/12 02:27:12;;;;;;;4.20;2.10;;;4.20;99.90;;;;;;5036603;28;20281;-71
2022/03/12 02:29:45;;;;;;;6.43;2.07;;;4.10;99.90;;;;;;5031995;28;20555;-71
2022/03/12 02:32:14;;;;;;;6.03;2.37;;;4.10;99.90;;;;;;5040678;28;20207;-71
2022/03/12 02:34:47;;;;;;;5.67;2.03;;;4.10;99.90;;;;;;5035330;28;20238;-71
2022/03/12 02:37:28;;;;;;;7.30;2.17;;;4.10;99.90;;;;;;5035432;28;20203;-71
2022/03/12 02:39:55;;;;;;;3.57;2.17;;;4.00;99.90;;;;;;5050307;28;20202;-71
2022/03/12 02:42:23;;;;;;;7.10;2.10;;;4.00;99.90;;;;;;5054140;28;20215;-71
2022/03/12 02:44:50;;;;;;;3.53;2.03;;;4.10;99.90;;;;;;5038590;28;20281;-71
2022/03/12 02:47:30;;;;;;;4.00;2.00;;;4.10;99.90;;;;;;5053659;28;20305;-71
2022/03/12 02:50:04;;;;;;;8.53;2.20;;;4.10;99.90;;;;;;5032021;28;20197;-71
2022/03/12 02:52:36;;;;;;;4.00;2.03;;;4.00;99.90;;;;;;5045664;28;20194;-71
2022/03/12 02:55:05;;;;;;;3.63;1.57;;;4.00;99.90;;;;;;5068939;28;20629;-69
2022/03/12 02:57:32;;;;;;;4.87;2.00;;;4.00;99.90;;;;;;5037159;28;20183;-69
2022/03/12 03:00:06;;;;;;;3.50;1.83;;;4.00;99.90;;;;;;5054343;28;20547;-70
2022/03/12 03:02:41;;;;;;;4.43;2.00;;;4.10;99.90;;;;;;5034479;28;20218;-70
2022/03/12 03:05:25;;;;;;;5.50;2.17;;;4.10;99.90;;;;;;5028024;28;20179;-70
2022/03/12 03:07:56;;;;;;;3.33;2.00;;;4.00;99.90;;;;;;5056234;28;20539;-69
2022/03/12 03:10:37;;;;;;;4.37;1.70;;;4.00;99.90;;;;;;5073581;28;20179;-70
2022/03/12 03:13:34;;;;;;;4.83;2.07;;;4.00;99.90;;;;;;5055142;28;20197;-70
2022/03/12 03:16:11;;;;;;;3.90;1.87;;;4.00;99.90;;;;;;5036441;28;20214;-69
2022/03/12 03:18:40;;;;;;;2.33;1.80;;;4.00;99.90;;;;;;5038229;28;20190;-69
2022/03/12 03:21:14;;;;;;;4.63;1.70;;;4.00;99.90;;;;;;5054142;28;20210;-70
2022/03/12 03:23:44;;;;;;;3.70;1.73;;;4.00;99.90;;;;;;5043254;28;20202;-70
2022/03/12 03:26:20;;;;;;;4.17;1.90;;;4.00;99.90;;;;;;5029199;28;20575;-70
2022/03/12 03:28:47;;;;;;;5.97;2.30;;;4.10;99.90;;;;;;5029876;28;20199;-70
2022/03/12 03:31:15;;;;;;;4.03;1.70;;;4.10;99.90;;;;;;5038125;28;20255;-69
2022/03/12 03:33:42;;;;;;;4.37;2.20;;;4.10;99.90;;;;;;5038036;28;20222;-69
2022/03/12 03:36:12;;;;;;;4.80;1.93;;;4.10;99.90;;;;;;5041693;28;20219;-70
2022/03/12 03:38:39;;;;;;;3.00;2.00;;;4.00;99.90;;;;;;5053323;28;20209;-69
2022/03/12 03:41:07;;;;;;;7.00;2.07;;;4.20;99.90;;;;;;5053627;28;20197;-69
2022/03/12 03:43:33;;;;;;;3.40;1.50;;;4.20;99.90;;;;;;5054065;28;20213;-70
2022/03/12 03:46:04;;;;;;;3.03;1.60;;;4.30;99.90;;;;;;5055063;28;20998;-70
2022/03/12 03:48:39;;;;;;;6.10;2.33;;;4.40;99.90;;;;;;5031976;28;20203;-70
2022/03/12 03:51:05;;;;;;;3.10;1.90;;;4.40;99.90;;;;;;5049348;28;20223;-70
2022/03/12 03:53:33;;;;;;;4.07;1.90;;;4.40;99.90;;;;;;5052679;28;20332;-69
2022/03/12 03:56:01;;;;;;;3.80;1.80;;;4.40;99.90;;;;;;5067126;28;20227;-70
2022/03/12 03:58:30;;;;;;;5.73;1.63;;;4.40;99.90;;;;;;5016398;28;20184;-70
2022/03/12 04:00:59;;;;;;;4.87;1.70;;;4.40;99.90;;;;;;5052439;28;20215;-70
2022/03/12 04:03:34;;;;;;;4.67;1.70;;;4.40;99.90;;;;;;5071950;28;20175;-70
2022/03/12 04:06:04;;;;;;;6.03;2.00;;;4.40;99.90;;;;;;5070812;28;20190;-70
2022/03/12 04:08:33;;;;;;;5.23;1.60;;;4.40;99.90;;;;;;5025539;28;20950;-70
2022/03/12 04:11:07;;;;;;;4.27;1.90;;;4.40;99.90;;;;;;5050645;28;20194;-69
2022/03/12 04:13:34;;;;;;;6.83;1.60;;;4.40;99.90;;;;;;5071014;28;20194;-70
2022/03/12 04:16:03;;;;;;;2.90;1.80;;;4.40;99.90;;;;;;5050599;28;20329;-70
2022/03/12 04:18:31;;;;;;;7.73;1.67;;;4.40;99.90;;;;;;5063815;28;20191;-70
2022/03/12 04:20:58;;;;;;;3.67;1.57;;;4.40;99.90;;;;;;5036680;28;20221;-70
2022/03/12 04:23:27;;;;;;;6.60;1.70;;;4.40;99.90;;;;;;5036822;28;20182;-70
2022/03/12 04:25:59;;;;;;;2.93;1.50;;;4.40;99.90;;;;;;5026653;28;20199;-70
2022/03/12 04:28:32;;;;;;;3.60;1.73;;;4.40;99.90;;;;;;5032443;28;20199;-70
2022/03/12 04:31:02;;;;;;;2.13;1.50;;;4.40;99.90;;;;;;5043824;28;20187;-70
2022/03/12 04:33:33;;;;;;;5.03;1.87;;;4.40;99.90;;;;;;5047025;28;20206;-70
2022/03/12 04:36:03;;;;;;;5.60;1.63;;;4.50;99.90;;;;;;5044468;28;20223;-70
2022/03/12 04:38:31;;;;;;;2.77;1.33;;;4.50;99.90;;;;;;5032844;28;20290;-69
2022/03/12 04:40:58;;;;;;;6.23;2.27;;;4.50;99.90;;;;;;5045959;28;20183;-70
2022/03/12 04:43:30;;;;;;;6.33;1.90;;;4.50;99.90;;;;;;5048770;28;20186;-69
2022/03/12 04:45:59;;;;;;;3.63;2.07;;;4.50;99.90;;;;;;5076724;28;20190;-70
2022/03/12 04:48:28;;;;;;;4.63;1.90;;;4.50;99.90;;;;;;5071734;28;20253;-70
2022/03/12 04:50:56;;;;;;;3.53;1.70;;;4.60;99.90;;;;;;5067512;28;20977;-70
2022/03/12 04:53:22;;;;;;;6.23;1.70;;;4.60;99.90;;;;;;5066551;28;20198;-70
2022/03/12 04:55:50;;;;;;;7.00;1.80;;;4.60;99.90;;;;;;5039683;28;20630;-70
2022/03/12 04:58:18;;;;;;;3.07;2.07;;;4.60;99.90;;;;;;5046964;28;20214;-70
2022/03/12 05:00:46;;;;;;;5.67;1.70;;;4.60;99.90;;;;;;5043692;28;20182;-70
2022/03/12 05:03:22;;;;;;;2.70;1.73;;;4.70;99.90;;;;;;5058554;28;20193;-70
2022/03/12 05:05:51;;;;;;;6.20;1.67;;;4.70;99.90;;;;;;5030782;28;20187;-70
2022/03/12 05:08:35;;;;;;;5.07;1.90;;;4.70;99.90;;;;;;5063451;28;20190;-70
2022/03/12 05:11:03;;;;;;;2.93;1.70;;;4.70;99.90;;;;;;5049018;28;20204;-70
2022/03/12 05:13:29;;;;;;;4.10;1.67;;;4.70;99.90;;;;;;5021839;28;20201;-70
2022/03/12 05:16:02;;;;;;;6.47;2.00;;;4.70;99.90;;;;;;5038960;28;20690;-70
2022/03/12 05:18:30;;;;;;;4.80;1.70;;;4.80;99.90;;;;;;5062304;28;20712;-70
2022/03/12 05:20:56;;;;;;;5.03;2.00;;;4.80;99.90;;;;;;5067269;28;20188;-70
2022/03/12 05:23:23;;;;;;;4.43;1.70;;;4.80;99.90;;;;;;5049609;28;20190;-70
2022/03/12 05:25:51;;;;;;;2.53;1.40;;;4.90;99.90;;;;;;5045895;28;20191;-69
2022/03/12 05:28:32;;;;;;;6.47;1.57;;;4.90;99.90;;;;;;5047209;28;20191;-70
2022/03/12 05:31:04;;;;;;;4.37;1.60;;;4.90;99.90;;;;;;5065776;28;20711;-69
2022/03/12 05:33:32;;;;;;;6.60;1.80;;;5.00;99.90;;;;;;5067292;28;20199;-70
2022/03/12 05:35:58;;;;;;;3.70;1.40;;;5.00;99.90;;;;;;5069087;28;20225;-70
2022/03/12 05:38:36;;;;;;;6.13;1.67;;;5.10;99.90;;;;;;5039603;28;20198;-70
2022/03/12 05:41:11;;;;;;;3.87;1.70;;;5.10;99.90;;;;;;5054654;28;20178;-70
2022/03/12 05:43:43;;;;;;;3.30;1.40;;;5.20;99.90;;;;;;5070223;28;20191;-70
2022/03/12 05:46:14;;;;;;;3.07;1.70;;;5.20;99.90;;;;;;5039055;28;20225;-69
2022/03/12 05:48:42;;;;;;;4.87;1.63;;;5.20;99.90;;;;;;5053809;28;20199;-70
2022/03/12 05:51:09;;;;;;;7.40;1.50;;;5.30;99.90;;;;;;5017502;28;20187;-70
2022/03/12 05:53:36;;;;;;;6.57;2.00;;;5.30;99.90;;;;;;5071785;28;20187;-70
2022/03/12 05:56:04;;;;;;;2.97;1.50;;;5.30;99.90;;;;;;5071374;28;20647;-70
2022/03/12 05:58:39;;;;;;;8.17;1.63;;;5.30;99.90;;;;;;5043433;28;20183;-70
2022/03/12 06:01:07;;;;;;;3.13;1.33;;;5.30;99.90;;;;;;5071972;28;20190;-70
2022/03/12 06:03:34;;;;;;;2.83;1.30;;;5.40;99.90;;;;;;5051413;28;20195;-70
2022/03/12 06:06:00;;;;;;;4.33;1.50;;;5.40;99.90;;;;;;5071855;28;20285;-70
2022/03/12 06:08:29;;;;;;;5.47;1.67;;;5.40;99.90;;;;;;5056138;28;20237;-70
2022/03/12 06:10:57;;;;;;;1.73;1.33;;;5.50;99.90;;;;;;5023904;28;20199;-70
2022/03/12 06:13:28;;;;;;;3.33;1.73;;;5.50;99.90;;;;;;5051104;28;20263;-70
2022/03/12 06:16:00;;;;;;;2.97;1.33;;;5.60;99.90;;;;;;5051074;28;20743;-70
2022/03/12 06:18:28;;;;;;;2.83;1.40;;;5.70;99.90;;;;;;5068959;28;20221;-69
2022/03/12 06:20:54;;;;;;;4.27;1.30;;;5.70;99.90;;;;;;5053147;28;20202;-70
2022/03/12 06:23:21;;;;;;;1.93;1.20;;;5.80;99.90;;;;;;5067741;28;20191;-69
2022/03/12 06:25:48;;;;;;;3.27;1.40;;;5.80;99.90;;;;;;5067867;28;20202;-70
2022/03/12 06:28:15;;;;;;;5.00;1.50;;;5.90;99.90;;;;;;5051665;28;20186;-69
2022/03/12 06:30:42;;;;;;;4.93;1.53;;;5.90;99.90;;;;;;5071714;28;20627;-70
2022/03/12 06:33:09;;;;;;;3.37;1.40;;;6.00;99.90;;;;;;5037397;28;20233;-70
2022/03/12 06:35:37;;;;;;;3.77;1.43;;;6.00;99.90;;;;;;5026950;28;20211;-70
2022/03/12 06:38:03;;;;;;;3.83;1.97;;;6.00;99.90;;;;;;5016892;28;20218;-70
2022/03/12 06:40:30;;;;;;;4.53;1.33;;;6.00;99.90;;;;;;5058777;28;20194;-70
2022/03/12 06:42:59;;;;;;;4.63;1.00;;;6.00;99.90;;;;;;5067729;28;20218;-70
2022/03/12 06:45:28;;;;;;;3.90;1.57;;;6.00;99.90;;;;;;5066989;28;20298;-70
2022/03/12 06:47:56;;;;;;;4.53;1.53;;;6.00;99.90;;;;;;5039619;28;20776;-70
2022/03/12 06:50:25;;;;;;;2.17;1.20;;;5.90;99.90;;;;;;5046003;28;20186;-70
2022/03/12 06:52:52;;;;;;;4.83;1.40;;;5.90;99.90;;;;;;5064394;28;20217;-70
2022/03/12 06:55:22;;;;;;;8.27;1.50;;;5.90;99.90;;;;;;5060885;28;20306;-69
2022/03/12 06:57:52;;;;;;;3.23;1.40;;;5.90;99.90;;;;;;5034719;28;20293;-69
2022/03/12 07:00:25;;;;;;;2.17;1.20;;;5.90;99.90;;;;;;5063657;28;20198;-70
2022/03/12 07:02:52;;;;;;;2.10;1.20;;;6.00;99.90;;;;;;5068734;28;20195;-70
2022/03/12 07:05:19;;;;;;;4.70;1.57;;;6.00;99.90;;;;;;5026530;28;20264;-70
2022/03/12 07:07:45;;;;;;;3.33;1.23;;;6.20;99.90;;;;;;5064314;28;20197;-69
2022/03/12 07:10:12;;;;;;;5.63;1.30;;;6.30;99.90;;;;;;5045071;28;20191;-69
2022/03/12 07:12:42;;;;;;;3.17;1.27;;;6.30;99.90;;;;;;5063069;28;20195;-69
2022/03/12 07:15:08;;;;;;;4.60;1.20;;;6.50;99.90;;;;;;5031877;28;20211;-69
2022/03/12 07:17:36;;;;;;;2.73;1.40;;;6.50;99.90;;;;;;5031652;28;20187;-69
2022/03/12 07:20:05;;;;;;;2.03;1.13;;;6.70;99.90;;;;;;5042615;28;20202;-69
2022/03/12 07:22:33;;;;;;;1.90;1.00;;;6.70;99.90;;;;;;5053714;28;20546;-70
2022/03/12 07:25:05;;;;;;;2.80;1.20;;;6.70;99.90;;;;;;5062290;28;20328;-69
2022/03/12 07:27:32;;;;;;;6.10;1.17;;;6.90;99.90;;;;;;5030992;28;20274;-69
2022/03/12 07:30:00;;;;;;;4.63;1.50;;;6.90;99.90;;;;;;5044659;28;20202;-69
2022/03/12 07:32:32;;;;;;;1.27;1.10;;;6.90;99.90;;;;;;5089534;28;20561;-69
2022/03/12 07:34:59;;;;;;;3.43;1.50;;;6.90;99.90;;;;;;5044327;28;20218;-69
2022/03/12 07:37:26;;;;;;;2.13;1.27;;;7.10;99.90;;;;;;5014497;28;20735;-69
2022/03/12 07:39:52;;;;;;;2.13;1.10;;;7.20;99.90;;;;;;4952905;28;2338163;-69
2022/03/12 07:42:18;;;;;;;3.70;1.57;;;7.20;99.90;;;;;;5068157;28;20210;-70
2022/03/12 07:44:45;;;;;;;3.33;1.77;;;7.10;99.90;;;;;;5051750;28;20198;-70
2022/03/12 07:47:11;;;;;;;5.93;2.03;;;7.10;99.90;;;;;;5058919;28;20378;-70
2022/03/12 07:49:38;;;;;;;5.73;3.10;;;7.10;99.90;;;;;;5059430;28;20199;-69
2022/03/12 07:52:10;;;;;;;5.83;3.50;;;7.30;99.90;;;;;;5058966;28;20531;-69
2022/03/12 07:54:37;;;;;;;7.43;1.40;;;7.40;99.90;;;;;;5050913;28;20219;-69
2022/03/12 07:57:04;;;;;;;2.87;1.40;;;7.30;99.90;;;;;;5065125;28;20774;-69
2022/03/12 07:59:31;;;;;;;2.00;1.30;;;7.30;99.90;;;;;;5059015;28;20183;-70
2022/03/12 08:02:01;;;;;;;2.13;1.30;;;7.30;99.90;;;;;;5069198;28;20178;-70
2022/03/12 08:04:30;;;;;;;4.37;1.10;;;7.30;99.90;;;;;;5066706;28;20187;-69
2022/03/12 08:07:02;;;;;;;2.43;1.30;;;7.40;99.90;;;;;;5048001;28;20198;-69
2022/03/12 08:09:30;;;;;;;3.57;1.10;;;7.40;99.90;;;;;;5040990;28;20218;-70
2022/03/12 08:11:57;;;;;;;1.67;1.20;;;7.30;99.90;;;;;;5044138;28;20956;-69
2022/03/12 08:14:24;;;;;;;4.30;1.07;;;7.20;99.90;;;;;;5049553;28;20257;-69
2022/03/12 08:16:52;;;;;;;1.53;1.20;;;7.20;99.90;;;;;;5047913;28;20277;-70
2022/03/12 08:19:19;;;;;;;1.83;1.13;;;7.20;99.90;;;;;;5065866;28;20190;-69
2022/03/12 08:21:47;;;;;;;1.57;1.10;;;7.30;99.90;;;;;;5068566;28;20211;-69
2022/03/12 08:24:15;;;;;;;3.57;1.10;;;7.30;99.90;;;;;;5050603;28;20643;-69
2022/03/12 08:26:43;;;;;;;2.97;1.37;;;7.50;99.90;;;;;;5062499;28;20190;-69
2022/03/12 08:29:11;;;;;;;2.60;1.20;;;7.50;99.90;;;;;;5064636;28;20194;-69
2022/03/12 08:31:39;;;;;;;4.77;1.50;;;7.40;99.90;;;;;;5068402;28;20179;-70
2022/03/12 08:34:08;;;;;;;5.20;1.30;;;7.40;99.90;;;;;;5067398;28;20257;-70
2022/03/12 08:36:35;;;;;;;1.60;1.00;;;7.50;99.90;;;;;;5032890;28;20712;-69
2022/03/12 08:39:02;;;;;;;1.73;1.10;;;7.60;99.90;;;;;;5051179;28;20530;-69
2022/03/12 08:41:29;;;;;;;7.80;1.77;;;7.70;99.90;;;;;;5050129;28;20174;-69
2022/03/12 08:43:55;;;;;;;1.80;1.10;;;7.80;99.90;;;;;;5037441;28;20227;-70
2022/03/12 08:46:22;;;;;;;3.53;1.30;;;7.80;99.90;;;;;;5060986;28;20271;-69
2022/03/12 08:48:48;;;;;;;1.23;1.10;;;7.80;99.90;;;;;;5049410;28;20194;-69
2022/03/12 08:51:15;;;;;;;2.60;1.20;;;7.90;99.90;;;;;;5066066;28;20228;-70
2022/03/12 08:53:42;;;;;;;2.33;1.20;;;7.90;99.90;;;;;;5065607;28;20638;-70
2022/03/12 08:56:08;;;;;;;2.87;1.27;;;7.90;99.90;;;;;;5067611;28;20265;-70
2022/03/12 08:58:36;;;;;;;3.37;1.47;;;7.90;99.90;;;;;;5039932;28;20218;-70
2022/03/12 09:01:06;;;;;;;2.07;1.30;;;7.90;99.90;;;;;;5067913;28;20721;-70
2022/03/12 09:03:33;;;;;;;1.87;1.10;;;7.90;99.90;;;;;;5059235;28;20566;-69
2022/03/12 09:06:00;;;;;;;1.67;1.20;;;7.90;99.90;;;;;;5068129;28;20277;-70
2022/03/12 09:08:26;;;;;;;3.37;1.53;;;7.90;99.90;;;;;;5031736;28;20183;-70
2022/03/12 09:10:54;;;;;;;2.80;1.37;;;7.80;99.90;;;;;;5045212;28;20663;-70
2022/03/12 09:13:21;;;;;;;3.17;1.40;;;7.80;99.90;;;;;;5032936;28;20179;-70
2022/03/12 09:15:48;;;;;;;3.97;1.50;;;7.80;99.90;;;;;;5047082;28;20221;-69
2022/03/12 09:18:15;;;;;;;3.53;1.23;;;7.80;99.90;;;;;;5051476;28;20187;-70
2022/03/12 09:20:46;;;;;;;4.67;1.47;;;7.90;99.90;;;;;;5049876;28;20190;-69
2022/03/12 09:23:19;;;;;;;1.90;1.40;;;8.00;99.90;;;;;;5063922;28;20230;-69
2022/03/12 09:25:50;;;;;;;3.07;1.50;;;8.00;99.90;;;;;;5037916;28;20190;-69
2022/03/12 09:28:19;;;;;;;1.80;1.07;;;8.10;99.90;;;;;;5048044;28;20703;-69
2022/03/12 09:30:53;;;;;;;2.53;1.30;;;8.10;99.90;;;;;;5065978;28;20596;-69
2022/03/12 09:33:24;;;;;;;3.37;1.40;;;8.30;99.90;;;;;;5065494;28;20230;-69
2022/03/12 09:35:54;;;;;;;3.07;1.03;;;8.30;99.90;;;;;;5063114;28;20226;-69
2022/03/12 09:38:22;;;;;;;3.40;1.50;;;8.30;99.90;;;;;;5045343;28;20717;-69
2022/03/12 09:40:49;;;;;;;3.77;1.30;;;8.30;99.90;;;;;;5064421;28;20187;-69
2022/03/12 09:43:15;;;;;;;2.20;1.37;;;8.30;99.90;;;;;;5047780;28;20179;-69
2022/03/12 09:45:42;;;;;;;4.60;1.67;;;8.40;99.90;;;;;;5066036;28;20512;-70
2022/03/12 09:48:09;;;;;;;5.00;1.20;;;8.50;99.90;;;;;;5045767;28;20202;-70
2022/03/12 09:50:36;;;;;;;3.50;1.37;;;8.40;99.90;;;;;;5042271;28;20193;-70
2022/03/12 09:53:04;;;;;;;2.47;1.30;;;9.40;99.90;;;;;;5059259;28;20187;-70
2022/03/12 09:55:31;;;;;;;2.20;1.20;;;10.70;99.90;;;;;;5030519;28;20493;-70
2022/03/12 09:57:58;;;;;;;3.20;1.17;;;9.80;99.90;;;;;;5042374;28;20187;-69
2022/03/12 10:00:26;;;;;;;3.50;1.20;;;9.00;99.90;;;;;;5054177;28;20194;-69
2022/03/12 10:02:53;;;;;;;7.87;1.50;;;8.60;99.90;;;;;;5065579;28;20244;-70
2022/03/12 10:05:19;;;;;;;3.43;1.40;;;8.50;99.90;;;;;;5048815;28;20201;-69
2022/03/12 10:07:46;;;;;;;4.13;1.70;;;8.90;99.90;;;;;;5065996;28;20276;-69
2022/03/12 10:10:17;;;;;;;3.07;1.30;;;9.50;99.90;;;;;;5040842;28;20690;-70
2022/03/12 10:12:45;;;;;;;3.57;1.30;;;9.40;99.90;;;;;;5016304;28;20224;-69
2022/03/12 10:15:14;;;;;;;4.43;1.30;;;11.60;99.90;;;;;;5060931;28;20674;-70
2022/03/12 10:17:43;;;;;;;2.57;1.30;;;13.40;99.90;;;;;;5053524;28;20194;-70
2022/03/12 10:20:13;;;;;;;3.37;1.53;;;14.00;99.90;;;;;;5050315;28;20266;-70
2022/03/12 10:22:42;;;;;;;2.87;1.43;;;12.40;99.90;;;;;;5068143;28;20182;-70
2022/03/12 10:25:09;;;;;;;2.33;1.27;;;11.10;99.90;;;;;;5070296;28;20190;-70
2022/03/12 10:27:36;;;;;;;6.13;1.50;;;10.50;99.90;;;;;;5042667;28;20337;-70
2022/03/12 10:30:05;;;;;;;4.17;1.30;;;11.10;99.90;;;;;;5049953;28;20685;-70
2022/03/12 10:32:41;;;;;;;3.30;1.20;;;12.10;99.90;;;;;;5062608;28;20175;-70
2022/03/12 10:35:10;;;;;;;5.80;1.20;;;12.00;99.90;;;;;;5061041;28;20284;-70
2022/03/12 10:37:37;;;;;;;4.03;1.20;;;11.10;99.90;;;;;;5047758;28;20215;-70
2022/03/12 10:40:27;;;;;;;3.90;1.50;;;11.50;99.90;;;;;;5069635;28;20205;-70
2022/03/12 10:43:05;;;;;;;3.47;1.50;;;11.10;99.90;;;;;;5030552;28;20274;-69
2022/03/12 10:45:52;;;;;;;3.43;1.40;;;10.20;99.90;;;;;;5048904;28;20740;-70
2022/03/12 10:48:22;;;;;;;4.57;1.60;;;11.00;99.90;;;;;;5066471;28;20222;-70
2022/03/12 10:50:52;;;;;;;3.60;1.33;;;11.90;99.90;;;;;;5051558;28;20191;-70
2022/03/12 10:53:19;;;;;;;4.57;1.17;;;12.50;99.90;;;;;;5070531;28;20194;-69
2022/03/12 10:55:50;;;;;;;2.70;1.20;;;12.00;99.90;;;;;;5053909;28;20214;-70
2022/03/12 10:58:26;;;;;;;2.97;1.60;;;11.20;99.90;;;;;;5075902;28;20182;-69
2022/03/12 11:01:02;;;;;;;2.57;1.20;;;10.50;99.90;;;;;;5045883;28;20186;-70
2022/03/12 11:03:33;;;;;;;5.27;1.60;;;10.00;99.90;;;;;;5073064;28;20198;-70
2022/03/12 11:06:02;;;;;;;3.10;1.30;;;9.90;99.90;;;;;;5052927;28;20189;-70
2022/03/12 11:08:31;;;;;;;3.93;1.37;;;9.70;99.90;;;;;;5034393;28;20680;-70
2022/03/12 11:11:13;;;;;;;4.20;1.23;;;9.50;99.90;;;;;;5070474;28;20195;-69
2022/03/12 11:13:47;;;;;;;2.13;1.40;;;9.40;99.90;;;;;;5068113;28;20197;-70
2022/03/12 11:16:32;;;;;;;3.37;1.47;;;9.30;99.90;;;;;;5068688;28;20810;-70
2022/03/12 11:19:10;;;;;;;3.63;1.80;;;9.20;99.90;;;;;;5073818;28;20174;-70
2022/03/12 11:21:50;;;;;;;2.77;1.60;;;9.10;99.90;;;;;;5047250;28;20197;-70
2022/03/12 11:24:27;;;;;;;2.43;1.40;;;9.10;99.90;;;;;;5036215;28;20211;-70
2022/03/12 11:27:03;;;;;;;4.77;1.53;;;9.10;99.90;;;;;;5061540;28;20175;-69
2022/03/12 11:29:31;;;;;;;1.90;1.20;;;9.30;99.90;;;;;;5056685;28;20963;-69
2022/03/12 11:32:04;;;;;;;2.87;1.30;;;9.30;99.90;;;;;;5068282;28;20187;-68
2022/03/12 11:34:40;;;;;;;5.80;1.67;;;9.30;99.90;;;;;;5055377;28;20211;-69
2022/03/12 11:37:16;;;;;;;2.53;1.53;;;9.30;99.90;;;;;;5059448;28;20225;-69
2022/03/12 11:39:52;;;;;;;3.33;1.73;;;9.20;99.90;;;;;;5046990;28;20198;-69
2022/03/12 11:42:26;;;;;;;7.73;1.80;;;9.00;99.90;;;;;;5036820;28;20190;-69
2022/03/12 11:45:03;;;;;;;4.30;1.83;;;9.00;99.90;;;;;;5062133;28;20760;-69
2022/03/12 11:47:33;;;;;;;1.60;1.30;;;8.90;99.90;;;;;;5065218;28;20186;-69
2022/03/12 11:50:08;;;;;;;2.07;1.40;;;8.80;99.90;;;;;;5046771;28;20203;-69
2022/03/12 11:52:36;;;;;;;2.93;1.43;;;8.90;99.90;;;;;;5056821;28;20182;-69
2022/03/12 11:55:03;;;;;;;4.47;1.43;;;9.20;99.90;;;;;;5066963;28;20211;-68
2022/03/12 11:57:34;;;;;;;3.63;1.40;;;9.40;99.90;;;;;;5064006;28;20809;-69
2022/03/12 12:00:05;;;;;;;4.40;1.60;;;9.50;99.90;;;;;;5048294;28;20210;-68
2022/03/12 12:02:34;;;;;;;3.43;1.57;;;9.30;99.90;;;;;;5063641;28;20957;-70
2022/03/12 12:05:07;;;;;;;2.90;1.63;;;9.10;99.90;;;;;;5032094;28;20187;-69
2022/03/12 12:07:36;;;;;;;4.47;1.50;;;9.10;99.90;;;;;;5059436;28;20279;-69
2022/03/12 12:10:18;;;;;;;3.93;1.60;;;9.10;99.90;;;;;;5060018;28;20282;-70
2022/03/12 12:12:51;;;;;;;4.77;1.60;;;9.00;99.90;;;;;;5037483;28;20589;-69
2022/03/12 12:15:22;;;;;;;8.80;1.80;;;8.90;99.90;;;;;;5038897;28;20226;-69
2022/03/12 12:17:50;;;;;;;4.13;1.73;;;8.80;99.90;;;;;;5040682;28;20191;-70
2022/03/12 12:20:21;;;;;;;7.33;1.60;;;8.90;99.90;;;;;;5064564;28;20201;-69
2022/03/12 12:22:49;;;;;;;6.00;2.10;;;9.00;99.90;;;;;;5026470;28;20610;-68
2022/03/12 12:25:19;;;;;;;4.97;1.50;;;9.00;99.90;;;;;;5041769;28;20226;-69
2022/03/12 12:27:52;;;;;;;2.43;1.50;;;9.00;99.90;;;;;;5027954;28;20187;-69
2022/03/12 12:30:40;;;;;;;4.73;1.90;;;8.80;99.90;;;;;;5045611;28;20191;-69
2022/03/12 12:33:25;;;;;;;8.13;2.00;;;8.70;99.90;;;;;;5059295;28;20219;-69
2022/03/12 12:36:21;;;;;;;4.43;1.60;;;8.90;99.90;;;;;;5037570;28;20555;-69
2022/03/12 12:39:17;;;;;;;5.90;1.80;;;9.10;99.90;;;;;;5063186;28;20206;-70
2022/03/12 12:42:02;;;;;;;6.53;1.83;;;9.20;99.90;;;;;;5064478;28;20183;-70
2022/03/12 12:44:42;;;;;;;5.67;1.77;;;9.10;99.90;;;;;;5063336;28;20266;-70
2022/03/12 12:47:18;;;;;;;3.80;1.83;;;9.00;99.90;;;;;;5066045;28;20225;-70
2022/03/12 12:49:54;;;;;;;4.37;1.30;;;9.00;99.90;;;;;;5016879;28;20191;-70
2022/03/12 12:52:23;;;;;;;3.23;1.40;;;9.00;99.90;;;;;;5039670;28;20197;-69
2022/03/12 12:55:01;;;;;;;5.53;1.40;;;8.90;99.90;;;;;;5021887;28;20219;-70
2022/03/12 12:57:48;;;;;;;3.40;1.67;;;9.00;99.90;;;;;;5052115;28;20208;-70
2022/03/12 13:00:21;;;;;;;2.73;1.57;;;8.90;99.90;;;;;;5034310;28;20214;-69
2022/03/12 13:02:49;;;;;;;6.70;1.60;;;8.80;99.90;;;;;;5034122;28;20232;-70
2022/03/12 13:05:17;;;;;;;5.53;1.67;;;8.70;99.90;;;;;;5026576;28;20918;-70
2022/03/12 13:08:04;;;;;;;4.73;1.70;;;8.60;99.90;;;;;;5053156;28;20202;-70
2022/03/12 13:10:32;;;;;;;4.20;1.70;;;8.40;99.90;;;;;;5053285;28;20237;-70
2022/03/12 13:13:13;;;;;;;3.73;1.60;;;8.40;99.90;;;;;;5016387;28;20191;-70